METAR Data
IDs: Format: Raw Decoded Include TAF

Data at: 1421 UTC 20 Jul 2019

METAR for:KMIW (Marshalltown Muni, IA, US)
Text:KMIW 201353Z AUTO 21015G20KT 10SM CLR 28/25 A2979 RMK AO2 SLP077 T02830250
Temperature: 28.3°C ( 83°F)
Dewpoint: 25.0°C ( 77°F) [RH = 82%]
Pressure (altimeter):29.79 inches Hg (1008.9 mb) [Sea level pressure: 1007.7 mb]
Winds:from the SSW (210 degrees) at 17 MPH (15 knots; 7.7 m/s) gusting to 23 MPH (20 knots; 10.3 m/s)
Visibility:10 or more sm (16+ km)
Ceiling:at least 12,000 feet AGL
Clouds:sky clear below 12,000 feet AGL
QC Flag:automated observation with no human augmentation